Time;durP1;ratioP1;P1;durP2;ratioP2;P2;SDS_P1;SDS_P2;PMS_P1;PMS_P2;Temp;Humidity;BMP_temperature;BMP_pressure;BME280_temperature;BME280_humidity;BME280_pressure;Samples;Min_cycle;Max_cycle;Signal;HPM_P1;HPM_P2
2022/11/21 00:01:41;;;;;;;7.10;2.35;;;;;;;7.05;77.58;99782.34;4183249;28;20040;-71
2022/11/21 00:03:43;;;;;;;4.82;1.40;;;;;;;7.09;77.56;99776.38;4178883;28;20040;-71
2022/11/21 00:05:49;;;;;;;5.13;1.55;;;;;;;7.00;77.90;99790.03;4191043;28;20083;-71
2022/11/21 00:07:54;;;;;;;4.32;2.20;;;;;;;6.89;78.16;99789.84;4183231;28;20045;-71
2022/11/21 00:09:57;;;;;;;7.53;1.42;;;;;;;6.84;78.56;99788.88;4184104;28;20095;-71
2022/11/21 00:11:59;;;;;;;3.10;1.30;;;;;;;6.90;78.96;99781.22;4181135;28;20041;-71
2022/11/21 00:14:02;;;;;;;4.72;1.52;;;;;;;6.95;78.65;99781.31;4183867;28;20044;-70
2022/11/21 00:16:07;;;;;;;5.60;1.80;;;;;;;6.87;78.88;99770.84;4191473;28;20040;-69
2022/11/21 00:18:11;;;;;;;4.15;1.50;;;;;;;6.92;78.48;99776.09;4182121;28;20052;-69
2022/11/21 00:20:14;;;;;;;4.82;1.50;;;;;;;6.94;78.66;99788.19;4189868;28;20589;-69
2022/11/21 00:22:17;;;;;;;5.65;1.30;;;;;;;7.00;78.67;99784.84;4180884;28;20036;-70
2022/11/21 00:24:21;;;;;;;5.35;1.67;;;;;;;7.01;78.54;99784.03;4179831;28;20041;-70
2022/11/21 00:26:24;;;;;;;5.95;1.75;;;;;;;6.98;79.20;99781.38;4180893;28;20040;-69
2022/11/21 00:28:27;;;;;;;3.42;1.10;;;;;;;7.04;78.65;99775.44;4181784;28;20047;-69
2022/11/21 00:30:30;;;;;;;11.63;1.92;;;;;;;6.95;78.75;99781.31;4187296;28;20044;-70
2022/11/21 00:32:33;;;;;;;7.22;1.25;;;;;;;7.02;78.65;99777.97;4187280;28;20071;-70
2022/11/21 00:34:36;;;;;;;2.75;1.30;;;;;;;6.93;78.77;99783.84;4195710;28;20041;-70
2022/11/21 00:36:39;;;;;;;6.03;1.48;;;;;;;6.96;78.77;99773.56;4187296;28;20039;-69
2022/11/21 00:38:43;;;;;;;7.43;1.70;;;;;;;7.04;79.12;99780.59;4189245;28;20123;-70
2022/11/21 00:40:47;;;;;;;7.97;1.52;;;;;;;7.15;78.72;99779.97;4180706;28;20076;-69
2022/11/21 00:42:50;;;;;;;6.32;1.73;;;;;;;7.15;78.69;99776.47;4181505;28;20067;-69
2022/11/21 00:44:53;;;;;;;5.18;1.70;;;;;;;7.15;78.07;99773.91;4179888;28;20037;-69
2022/11/21 00:46:55;;;;;;;7.70;1.52;;;;;;;7.17;78.17;99777.41;4180612;28;20045;-69
2022/11/21 00:48:58;;;;;;;3.78;1.35;;;;;;;7.23;78.14;99771.44;4180579;28;20044;-69
2022/11/21 00:51:01;;;;;;;5.25;1.48;;;;;;;7.28;77.54;99770.66;4182379;28;20449;-69
2022/11/21 00:53:04;;;;;;;6.78;1.45;;;;;;;7.37;77.16;99771.69;4186501;28;20033;-68
2022/11/21 00:55:07;;;;;;;5.35;1.65;;;;;;;7.30;77.19;99771.59;4179838;28;20043;-69
2022/11/21 00:57:12;;;;;;;3.85;1.25;;;;;;;7.33;78.02;99781.97;4180525;28;20410;-69
2022/11/21 00:59:14;;;;;;;5.53;1.98;;;;;;;7.39;77.17;99770.88;4180532;28;20040;-69
2022/11/21 01:01:17;;;;;;;6.75;1.52;;;;;;;7.24;77.31;99761.16;4180447;28;20037;-68
2022/11/21 01:03:20;;;;;;;5.50;1.60;;;;;;;7.15;78.29;99769.63;4179675;28;20045;-70
2022/11/21 01:05:23;;;;;;;4.18;1.65;;;;;;;7.17;78.09;99756.72;4189922;28;20082;-68
2022/11/21 01:07:26;;;;;;;5.57;1.50;;;;;;;7.14;78.07;99742.03;4195997;28;20051;-68
2022/11/21 01:09:29;;;;;;;8.80;1.80;;;;;;;7.21;78.08;99760.22;4169363;28;20069;-68
2022/11/21 01:11:32;;;;;;;4.53;1.42;;;;;;;7.25;77.78;99752.53;4182604;28;20398;-68
2022/11/21 01:13:37;;;;;;;4.07;1.38;;;;;;;7.25;77.97;99749.94;4193774;28;20569;-68
2022/11/21 01:15:40;;;;;;;;;;;;;;;7.18;77.83;99750.69;4185053;28;20149;-68
2022/11/21 01:17:42;;;;;;;5.25;1.75;;;;;;;7.21;77.83;99745.56;4183782;28;19975;-68
2022/11/21 01:19:45;;;;;;;4.43;1.50;;;;;;;7.22;78.27;99736.97;4195385;28;20097;-68
2022/11/21 01:21:48;;;;;;;4.65;1.20;;;;;;;7.21;77.85;99737.81;4186830;28;20410;-68
2022/11/21 01:23:52;;;;;;;6.90;1.73;;;;;;;7.21;78.33;99748.16;4186695;28;20040;-68
2022/11/21 01:25:55;;;;;;;3.30;1.50;;;;;;;7.23;78.31;99740.41;4198539;28;20045;-68
2022/11/21 01:27:57;;;;;;;4.18;1.65;;;;;;;7.20;78.56;99738.69;4199389;28;20102;-68
2022/11/21 01:30:01;;;;;;;7.57;1.50;;;;;;;7.17;78.56;99736.03;4184285;28;20067;-69
2022/11/21 01:32:04;;;;;;;7.47;1.80;;;;;;;7.24;78.11;99732.72;4198573;28;20560;-69
2022/11/21 01:34:07;;;;;;;3.70;1.50;;;;;;;7.35;77.65;99730.28;4182744;28;20106;-69
2022/11/21 01:36:12;;;;;;;6.97;1.92;;;;;;;7.31;77.29;99726.75;4186728;28;20552;-69
2022/11/21 01:38:15;;;;;;;3.22;1.40;;;;;;;7.20;77.82;99736.09;4191634;28;20079;-69
2022/11/21 01:40:18;;;;;;;11.45;1.95;;;;;;;7.14;77.88;99735.97;4183547;28;20033;-69
2022/11/21 01:42:20;;;;;;;8.43;1.67;;;;;;;7.09;77.85;99738.47;4182160;28;20036;-69
2022/11/21 01:44:25;;;;;;;5.47;1.42;;;;;;;7.13;77.71;99734.25;4183067;28;20045;-69
2022/11/21 01:46:30;;;;;;;7.00;1.80;;;;;;;7.07;78.06;99735.00;4191543;28;20398;-69
2022/11/21 01:48:39;;;;;;;3.47;1.23;;;;;;;7.20;77.10;99740.38;4183369;28;20410;-69
2022/11/21 01:50:42;;;;;;;4.22;1.55;;;;;;;7.02;77.94;99734.06;4186191;28;20033;-69
2022/11/21 01:52:45;;;;;;;5.22;1.52;;;;;;;6.93;78.21;99739.94;4191307;28;20041;-69
2022/11/21 01:54:51;;;;;;;6.50;1.58;;;;;;;6.91;78.41;99741.63;4181186;28;20091;-69
2022/11/21 01:57:01;;;;;;;7.38;1.98;;;;;;;6.96;78.18;99737.41;4183346;28;20441;-69
2022/11/21 01:59:06;;;;;;;3.55;1.20;;;;;;;6.96;78.28;99741.72;4195057;28;20044;-69
2022/11/21 02:01:09;;;;;;;4.88;1.35;;;;;;;6.93;78.14;99739.94;4198379;28;20045;-69
2022/11/21 02:03:20;;;;;;;7.43;2.40;;;;;;;6.99;77.56;99745.22;4198689;28;20060;-69
2022/11/21 02:05:27;;;;;;;2.65;1.17;;;;;;;6.94;78.27;99738.25;4189715;28;20028;-69
2022/11/21 02:07:35;;;;;;;5.07;1.50;;;;;;;6.88;78.31;99745.84;4185808;28;20043;-69
2022/11/21 02:09:42;;;;;;;4.90;1.60;;;;;;;6.89;78.30;99739.84;4195610;28;20044;-69
2022/11/21 02:11:49;;;;;;;3.30;1.15;;;;;;;6.81;78.95;99735.44;4185849;28;20509;-69
2022/11/21 02:13:52;;;;;;;5.20;1.33;;;;;;;6.79;79.08;99733.66;4185181;28;20403;-69
2022/11/21 02:15:56;;;;;;;3.85;0.95;;;;;;;6.78;78.90;99731.94;4191547;28;20040;-69
2022/11/21 02:17:59;;;;;;;3.80;1.58;;;;;;;6.79;78.87;99723.31;4183466;28;20048;-69
2022/11/21 02:20:06;;;;;;;4.00;1.30;;;;;;;6.78;78.96;99725.03;4190940;28;20099;-69
2022/11/21 02:22:15;;;;;;;5.18;1.48;;;;;;;6.74;79.22;99719.78;4199447;28;20543;-69
2022/11/21 02:24:28;;;;;;;3.58;1.40;;;;;;;6.70;79.43;99720.59;4198445;28;20044;-69
2022/11/21 02:26:33;;;;;;;6.75;2.05;;;;;;;6.72;79.33;99718.91;4199264;28;20045;-68
2022/11/21 02:28:36;;;;;;;4.28;1.35;;;;;;;6.69;78.85;99716.25;4197653;28;20078;-69
2022/11/21 02:30:41;;;;;;;5.07;1.58;;;;;;;6.67;79.44;99717.94;4197433;28;20036;-69
2022/11/21 02:32:46;;;;;;;6.88;1.90;;;;;;;6.66;78.88;99718.78;4185999;28;20651;-69
2022/11/21 02:34:49;;;;;;;5.18;1.70;;;;;;;6.70;78.95;99723.16;4181574;28;20040;-69
2022/11/21 02:36:52;;;;;;;4.25;1.85;;;;;;;6.66;79.20;99726.53;4181710;28;20037;-69
2022/11/21 02:38:55;;;;;;;6.82;1.58;;;;;;;6.69;78.94;99722.31;4183374;28;20037;-69
2022/11/21 02:41:03;;;;;;;3.30;1.20;;;;;;;6.64;79.23;99729.09;4182534;28;20130;-69
2022/11/21 02:43:14;;;;;;;6.53;1.80;;;;;;;6.57;79.59;99727.22;4182752;28;20033;-69
2022/11/21 02:45:23;;;;;;;4.85;1.55;;;;;;;6.61;79.38;99721.28;4190975;28;20033;-69
2022/11/21 02:47:27;;;;;;;8.27;1.52;;;;;;;6.57;79.34;99724.66;4186144;28;20037;-69
2022/11/21 02:49:40;;;;;;;5.88;1.38;;;;;;;6.57;79.82;99720.38;4188027;28;20375;-69
2022/11/21 02:51:43;;;;;;;4.35;1.23;;;;;;;6.57;79.68;99722.94;4190519;28;20033;-69
2022/11/21 02:53:46;;;;;;;4.35;1.10;;;;;;;6.56;79.83;99716.03;4196760;28;20079;-69
2022/11/21 02:55:49;;;;;;;4.55;1.35;;;;;;;6.56;79.58;99716.03;4193105;28;20072;-69
2022/11/21 02:57:52;;;;;;;3.58;1.23;;;;;;;6.59;79.61;99713.50;4185223;28;20044;-69
2022/11/21 02:59:56;;;;;;;6.53;1.83;;;;;;;6.60;79.59;99715.25;4195554;28;20402;-69
2022/11/21 03:01:59;;;;;;;4.57;1.80;;;;;;;6.61;79.13;99698.94;4195588;28;20062;-69
2022/11/21 03:04:02;;;;;;;4.18;1.55;;;;;;;6.62;78.88;99705.81;4189256;28;20119;-69
2022/11/21 03:06:05;;;;;;;4.43;1.88;;;;;;;6.77;79.03;99699.19;4192622;28;20070;-69
2022/11/21 03:08:09;;;;;;;6.25;1.55;;;;;;;6.80;78.50;99700.13;4197192;28;20044;-69
2022/11/21 03:10:11;;;;;;;4.57;1.65;;;;;;;6.81;78.07;99701.84;4197395;28;20102;-69
2022/11/21 03:12:14;;;;;;;5.57;2.25;;;;;;;6.86;77.91;99701.91;4191207;28;20044;-69
2022/11/21 03:14:17;;;;;;;5.95;2.05;;;;;;;6.87;78.29;99700.22;4181025;28;20403;-69
2022/11/21 03:16:21;;;;;;;3.95;1.40;;;;;;;6.98;78.16;99709.03;4192331;28;20048;-69
2022/11/21 03:18:24;;;;;;;6.00;1.80;;;;;;;6.99;77.81;99706.47;4190273;28;20116;-69
2022/11/21 03:20:27;;;;;;;7.10;1.77;;;;;;;6.98;77.63;99707.31;4185394;28;20041;-69
2022/11/21 03:22:30;;;;;;;4.38;1.50;;;;;;;6.98;78.14;99704.72;4180465;28;20052;-70
2022/11/21 03:24:33;;;;;;;6.40;1.92;;;;;;;7.03;78.10;99709.09;4188309;28;20090;-70
2022/11/21 03:26:36;;;;;;;5.72;1.60;;;;;;;7.05;77.46;99708.25;4186913;28;20041;-69
2022/11/21 03:28:39;;;;;;;7.43;1.67;;;;;;;7.11;78.10;99703.22;4188581;28;20033;-69
2022/11/21 03:30:41;;;;;;;5.60;1.98;;;;;;;7.10;77.75;99703.19;4196092;28;20398;-68
2022/11/21 03:32:46;;;;;;;9.35;1.58;;;;;;;7.12;77.86;99706.66;4181384;28;20083;-68
2022/11/21 03:34:49;;;;;;;10.85;1.80;;;;;;;7.09;78.20;99701.44;4184236;28;20048;-68
2022/11/21 03:36:51;;;;;;;8.82;1.77;;;;;;;7.09;78.16;99701.44;4198130;28;20090;-69
2022/11/21 03:38:55;;;;;;;5.50;1.60;;;;;;;7.04;78.22;99705.66;4188690;28;20064;-69
2022/11/21 03:40:57;;;;;;;5.90;1.70;;;;;;;7.11;78.18;99705.78;4181608;28;20048;-70
2022/11/21 03:43:06;;;;;;;4.38;1.42;;;;;;;7.18;77.93;99706.75;4182682;28;20095;-70
2022/11/21 03:45:10;;;;;;;3.08;1.33;;;;;;;7.21;78.06;99700.75;4195605;28;20051;-70
2022/11/21 03:47:12;;;;;;;5.80;1.50;;;;;;;7.23;77.50;99699.94;4190593;28;20064;-70
2022/11/21 03:49:17;;;;;;;4.60;1.20;;;;;;;7.21;77.77;99701.63;4193419;28;20047;-70
2022/11/21 03:51:20;;;;;;;5.72;1.60;;;;;;;7.21;77.99;99703.34;4185269;28;20502;-70
2022/11/21 03:53:22;;;;;;;3.22;1.20;;;;;;;7.19;77.48;99705.03;4180621;28;20033;-70
2022/11/21 03:55:25;;;;;;;5.43;1.83;;;;;;;7.07;78.21;99703.13;4189559;28;20063;-70
2022/11/21 03:57:28;;;;;;;6.03;2.15;;;;;;;7.04;77.63;99708.22;4195300;28;20041;-70
2022/11/21 03:59:31;;;;;;;8.48;1.55;;;;;;;7.07;77.96;99714.34;4175818;28;20076;-69
2022/11/21 04:01:34;;;;;;;6.15;2.15;;;;;;;7.03;77.86;99719.44;4189923;28;20078;-69
2022/11/21 04:03:39;;;;;;;5.75;1.38;;;;;;;7.01;78.70;99719.41;4164173;28;20046;-70
2022/11/21 04:05:44;;;;;;;6.25;1.90;;;;;;;7.09;78.13;99711.78;4191082;28;20028;-70
2022/11/21 04:07:46;;;;;;;9.32;2.60;;;;;;;7.20;78.07;99718.00;4197674;28;20131;-70
2022/11/21 04:09:49;;;;;;;6.32;1.50;;;;;;;7.20;78.21;99712.81;4195568;28;20048;-69
2022/11/21 04:11:52;;;;;;;4.93;1.25;;;;;;;7.26;78.03;99707.75;4197442;28;20036;-69
2022/11/21 04:13:55;;;;;;;6.32;1.95;;;;;;;7.28;77.86;99712.94;4188080;28;20036;-70
2022/11/21 04:15:58;;;;;;;8.63;1.48;;;;;;;7.19;77.77;99703.31;4183803;28;20041;-69
2022/11/21 04:18:01;;;;;;;7.55;1.40;;;;;;;7.23;77.76;99710.28;4186865;28;20049;-70
2022/11/21 04:20:04;;;;;;;10.63;1.77;;;;;;;7.24;78.08;99696.53;4189343;28;20118;-69
2022/11/21 04:22:08;;;;;;;8.98;2.17;;;;;;;7.26;77.55;99692.22;4195658;28;20117;-69
2022/11/21 04:24:11;;;;;;;6.05;1.83;;;;;;;7.15;77.52;99699.84;4179912;28;20037;-70
2022/11/21 04:26:14;;;;;;;7.30;1.63;;;;;;;7.02;78.02;99695.28;4163213;28;20503;-70
2022/11/21 04:28:17;;;;;;;3.80;1.38;;;;;;;6.92;77.88;99691.72;4182312;28;20036;-70
2022/11/21 04:30:20;;;;;;;5.18;1.35;;;;;;;6.93;77.47;99696.00;4187872;28;20063;-70
2022/11/21 04:32:22;;;;;;;7.57;1.35;;;;;;;6.91;77.49;99700.28;4184554;28;20552;-69
2022/11/21 04:34:25;;;;;;;2.95;1.10;;;;;;;6.97;77.15;99696.94;4189405;28;20045;-69
2022/11/21 04:36:29;;;;;;;2.35;0.90;;;;;;;6.97;76.94;99707.28;4196486;28;20070;-69
2022/11/21 04:38:33;;;;;;;2.83;1.15;;;;;;;6.90;76.28;99708.88;4179396;28;20047;-69
2022/11/21 04:40:36;;;;;;;3.47;1.05;;;;;;;7.02;76.20;99702.19;4196517;28;20048;-69
2022/11/21 04:42:41;;;;;;;5.30;1.20;;;;;;;7.06;76.50;99709.16;4197226;28;20090;-69
2022/11/21 04:44:44;;;;;;;4.30;1.85;;;;;;;7.09;75.99;99702.28;4186352;28;20522;-69
2022/11/21 04:46:47;;;;;;;5.88;1.30;;;;;;;7.06;75.61;99703.97;4188804;28;20384;-69
2022/11/21 04:48:49;;;;;;;4.55;1.00;;;;;;;7.07;75.19;99701.41;4195069;28;20040;-69
2022/11/21 04:50:52;;;;;;;6.38;1.85;;;;;;;7.13;75.37;99698.06;4196877;28;20040;-69
2022/11/21 04:52:57;;;;;;;2.42;0.98;;;;;;;7.08;75.06;99710.03;4195227;28;20124;-69
2022/11/21 04:55:01;;;;;;;2.17;0.80;;;;;;;7.17;75.22;99705.03;4185839;28;20039;-69
2022/11/21 04:57:04;;;;;;;2.63;1.00;;;;;;;7.19;75.06;99705.03;4180553;28;20048;-69
2022/11/21 04:59:07;;;;;;;3.55;1.00;;;;;;;7.16;74.94;99704.13;4183814;28;20041;-70
2022/11/21 05:01:09;;;;;;;3.90;1.10;;;;;;;7.14;74.54;99707.53;4191630;28;20068;-70
2022/11/21 05:03:12;;;;;;;3.88;1.58;;;;;;;7.16;75.30;99709.31;4162845;28;20385;-69
2022/11/21 05:05:15;;;;;;;3.55;1.00;;;;;;;7.17;74.68;99705.03;4193333;28;20123;-70
2022/11/21 05:07:18;;;;;;;3.00;1.08;;;;;;;7.17;75.38;99705.03;4188547;28;20131;-69
2022/11/21 05:09:21;;;;;;;1.67;0.70;;;;;;;7.23;74.72;99696.47;4184127;28;20136;-69
2022/11/21 05:13:45;;;;;;;3.38;0.90;;;;;;;7.26;74.75;99700.00;4192096;28;20483;-69
2022/11/21 05:15:50;;;;;;;2.95;1.20;;;;;;;7.25;74.67;99708.56;4192050;28;20544;-70
2022/11/21 05:17:53;;;;;;;3.40;1.00;;;;;;;7.23;75.21;99704.22;4195583;28;20074;-70
2022/11/21 05:19:56;;;;;;;3.85;1.00;;;;;;;7.24;75.30;99696.53;4192741;28;20048;-70
2022/11/21 05:21:59;;;;;;;3.13;1.05;;;;;;;7.22;75.02;99708.53;4194277;28;20150;-70
2022/11/21 05:24:01;;;;;;;4.78;1.17;;;;;;;7.21;75.63;99711.09;4187957;28;20048;-70
2022/11/21 05:26:04;;;;;;;4.22;1.15;;;;;;;7.23;75.42;99711.97;4187524;28;20446;-69
2022/11/21 05:28:08;;;;;;;2.85;0.90;;;;;;;7.28;75.36;99706.03;4180778;28;20445;-70
2022/11/21 05:30:12;;;;;;;2.33;1.00;;;;;;;7.32;75.44;99715.59;4190298;28;20036;-69
2022/11/21 05:32:15;;;;;;;3.85;0.90;;;;;;;7.37;74.81;99697.53;4186749;28;20098;-70
2022/11/21 05:34:18;;;;;;;7.50;1.02;;;;;;;7.43;74.96;99701.94;4184590;28;20549;-69
2022/11/21 05:36:21;;;;;;;3.17;1.00;;;;;;;7.40;74.84;99707.06;4184462;28;20403;-70
2022/11/21 05:38:23;;;;;;;2.35;0.98;;;;;;;7.42;74.94;99698.50;4188303;28;20068;-69
2022/11/21 05:40:26;;;;;;;6.40;1.30;;;;;;;7.32;74.62;99700.06;4179229;28;20041;-69
2022/11/21 05:44:51;;;;;;;4.97;1.30;;;;;;;7.32;74.54;99710.41;4182350;28;20037;-69
2022/11/21 05:46:54;;;;;;;3.17;1.73;;;;;;;7.34;75.23;99706.16;4187667;28;20044;-69
2022/11/21 05:48:56;;;;;;;5.38;1.40;;;;;;;7.32;75.03;99699.22;4180401;28;20482;-69
2022/11/21 05:50:59;;;;;;;3.33;1.38;;;;;;;7.28;75.16;99705.19;4180360;28;20419;-69
2022/11/21 05:53:03;;;;;;;3.72;1.63;;;;;;;7.24;75.09;99706.84;4183262;28;20044;-69
2022/11/21 05:55:07;;;;;;;4.03;2.23;;;;;;;7.25;74.76;99706.00;4197484;28;20032;-69
2022/11/21 05:57:09;;;;;;;3.97;2.13;;;;;;;7.26;74.87;99705.16;4199213;28;20409;-69
2022/11/21 05:59:12;;;;;;;4.57;1.67;;;;;;;7.21;74.90;99704.19;4187459;28;20466;-69
2022/11/21 06:03:25;;;;;;;4.97;1.95;;;;;;;7.25;74.71;99695.66;4185869;28;20128;-69
2022/11/21 06:03:41;;;;;;;5.47;1.57;;;;;;;7.28;74.62;99700.88;4192938;28;20065;-69
2022/11/21 06:05:44;;;;;;;14.73;2.50;;;;;;;7.26;74.42;99693.97;4165389;28;20084;-69
2022/11/21 06:07:46;;;;;;;21.45;3.95;;;;;;;7.21;74.16;99701.63;4171709;28;20045;-69
2022/11/21 06:09:49;;;;;;;11.43;2.88;;;;;;;7.22;74.19;99693.03;4183961;28;20414;-69
2022/11/21 06:11:52;;;;;;;9.13;2.40;;;;;;;7.18;73.76;99709.31;4182896;28;20517;-69
2022/11/21 06:13:55;;;;;;;7.80;2.17;;;;;;;7.12;74.27;99697.16;4193604;28;20040;-69
2022/11/21 06:16:00;;;;;;;5.63;1.92;;;;;;;7.08;74.04;99703.16;4190997;28;20036;-69
2022/11/21 06:18:05;;;;;;;6.18;1.40;;;;;;;7.08;74.51;99704.84;4186664;28;20040;-69
2022/11/21 06:20:09;;;;;;;9.68;2.00;;;;;;;7.03;73.90;99709.09;4188219;28;20078;-69
2022/11/21 06:22:12;;;;;;;10.80;3.22;;;;;;;7.08;73.89;99715.19;4195897;28;20040;-69
2022/11/21 06:24:15;;;;;;;9.13;2.63;;;;;;;7.14;73.62;99715.28;4189401;28;20115;-69
2022/11/21 06:26:25;;;;;;;12.40;3.55;;;;;;;7.17;73.83;99715.38;4183382;28;20041;-69
2022/11/21 06:28:32;;;;;;;12.52;4.00;;;;;;;7.18;73.97;99719.66;4189270;28;20048;-69
2022/11/21 06:30:35;;;;;;;9.07;2.97;;;;;;;7.24;74.13;99711.13;4182613;28;20033;-69
2022/11/21 06:32:38;;;;;;;13.18;3.13;;;;;;;7.26;74.04;99719.81;4187317;28;20039;-69
2022/11/21 06:34:42;;;;;;;7.57;2.83;;;;;;;7.24;73.36;99717.19;4194932;28;20048;-69
2022/11/21 06:36:45;;;;;;;9.27;3.05;;;;;;;7.21;73.03;99717.13;4187894;28;20040;-69
2022/11/21 06:38:48;;;;;;;8.40;2.33;;;;;;;7.22;73.82;99707.69;4195008;28;20120;-69
2022/11/21 06:40:51;;;;;;;9.77;2.25;;;;;;;7.22;73.58;99708.53;4195654;28;20561;-69
2022/11/21 06:42:54;;;;;;;4.85;1.73;;;;;;;7.18;73.83;99717.09;4186723;28;20055;-67
2022/11/21 06:44:57;;;;;;;9.80;3.05;;;;;;;7.23;74.03;99720.63;4192628;28;20445;-67
2022/11/21 06:46:59;;;;;;;9.85;3.55;;;;;;;7.24;73.57;99717.19;4183677;28;20045;-67
2022/11/21 06:49:02;;;;;;;17.25;3.17;;;;;;;7.22;72.94;99716.28;4187021;28;20037;-67
2022/11/21 06:51:08;;;;;;;10.77;3.30;;;;;;;7.26;72.76;99717.22;4189950;28;20068;-67
2022/11/21 06:53:11;;;;;;;19.10;4.47;;;;;;;7.24;72.56;99716.31;4192196;28;20102;-67
2022/11/21 06:55:14;;;;;;;9.68;3.78;;;;;;;7.22;72.68;99711.13;4198352;28;20090;-67
2022/11/21 06:57:17;;;;;;;11.60;3.20;;;;;;;7.14;72.97;99712.69;4197157;28;20032;-67
2022/11/21 06:59:20;;;;;;;15.02;4.43;;;;;;;7.20;73.23;99710.25;4189813;28;20033;-67
2022/11/21 07:01:23;;;;;;;12.52;2.53;;;;;;;7.22;73.38;99708.53;4194786;28;20512;-67
2022/11/21 07:03:26;;;;;;;13.35;3.28;;;;;;;7.23;73.37;99715.44;4197107;28;20044;-67
2022/11/21 07:05:30;;;;;;;10.65;2.40;;;;;;;7.29;73.34;99715.53;4197553;28;20132;-67
2022/11/21 07:07:34;;;;;;;8.57;2.33;;;;;;;7.24;73.25;99717.19;4189851;28;20041;-67
2022/11/21 07:09:37;;;;;;;13.38;2.38;;;;;;;7.20;73.13;99715.41;4189727;28;20037;-67
2022/11/21 07:11:40;;;;;;;7.85;2.20;;;;;;;7.16;72.53;99713.63;4188808;28;20037;-68
2022/11/21 07:13:42;;;;;;;10.10;3.45;;;;;;;7.18;72.24;99717.09;4189354;28;20112;-67
2022/11/21 07:15:46;;;;;;;7.65;1.83;;;;;;;7.15;72.78;99720.50;4182031;28;20048;-67
2022/11/21 07:17:49;;;;;;;6.90;2.03;;;;;;;7.15;73.31;99722.19;4181994;28;20040;-67
2022/11/21 07:19:51;;;;;;;9.18;2.65;;;;;;;7.16;72.70;99717.06;4182071;28;20487;-67
2022/11/21 07:21:57;;;;;;;6.93;1.95;;;;;;;7.21;72.67;99724.03;4181899;28;20041;-67
2022/11/21 07:24:01;;;;;;;8.13;1.98;;;;;;;7.27;73.03;99729.28;4187527;28;20047;-67
2022/11/21 07:26:05;;;;;;;11.25;3.10;;;;;;;7.36;72.69;99726.88;4189990;28;20036;-67
2022/11/21 07:28:09;;;;;;;8.10;1.90;;;;;;;7.30;71.68;99732.81;4180756;28;20486;-67
2022/11/21 07:30:13;;;;;;;4.65;2.22;;;;;;;7.34;71.91;99733.72;4181802;28;20559;-67
2022/11/21 07:32:16;;;;;;;7.93;2.28;;;;;;;7.35;71.97;99738.03;4181736;28;20434;-67
2022/11/21 07:34:18;;;;;;;7.80;2.38;;;;;;;7.40;71.52;99727.75;4179781;28;20041;-67
2022/11/21 07:36:21;;;;;;;9.85;3.47;;;;;;;7.31;71.45;99737.09;4180406;28;20459;-67
2022/11/21 07:38:24;;;;;;;11.15;2.97;;;;;;;7.30;71.43;99737.97;4186581;28;20136;-67
2022/11/21 07:40:29;;;;;;;9.80;2.80;;;;;;;7.34;72.09;99733.72;4190009;28;20437;-67
2022/11/21 07:42:32;;;;;;;8.10;2.50;;;;;;;7.27;72.09;99743.09;4181567;28;20094;-66
2022/11/21 07:44:35;;;;;;;8.25;3.28;;;;;;;7.30;72.41;99743.16;4179437;28;20053;-67
2022/11/21 07:46:38;;;;;;;13.45;2.80;;;;;;;7.32;72.17;99744.03;4184286;28;20033;-67
2022/11/21 07:48:40;;;;;;;7.22;2.47;;;;;;;7.34;71.99;99755.28;4181339;28;20491;-67
2022/11/21 07:50:43;;;;;;;9.50;2.50;;;;;;;7.42;71.85;99757.13;4181237;28;20041;-67
2022/11/21 07:52:46;;;;;;;7.43;2.30;;;;;;;7.43;72.21;99754.56;4180201;28;20375;-67
2022/11/21 07:54:49;;;;;;;5.32;2.28;;;;;;;7.42;72.08;99751.94;4179167;28;20613;-67
2022/11/21 07:56:56;;;;;;;7.38;2.20;;;;;;;7.38;71.45;99747.56;4181243;28;20495;-67
2022/11/21 07:58:59;;;;;;;6.88;2.15;;;;;;;7.39;71.29;99747.59;4179985;28;20036;-67
2022/11/21 08:01:04;;;;;;;6.82;2.13;;;;;;;7.37;71.49;99751.00;4182949;28;20045;-67
2022/11/21 08:03:07;;;;;;;9.13;2.05;;;;;;;7.44;71.24;99739.91;4195986;28;20132;-67
2022/11/21 08:05:10;;;;;;;7.63;2.13;;;;;;;7.47;70.27;99751.16;4197201;28;20498;-67
2022/11/21 08:07:13;;;;;;;7.38;1.90;;;;;;;7.48;70.47;99752.03;4213166;28;20047;-68
2022/11/21 08:09:15;;;;;;;8.13;2.92;;;;;;;7.46;70.60;99749.44;4197663;28;20047;-67
2022/11/21 08:11:18;;;;;;;6.97;2.55;;;;;;;7.40;70.13;99761.38;4196426;28;20040;-68
2022/11/21 08:13:22;;;;;;;7.88;2.85;;;;;;;7.38;71.04;99757.91;4196778;28;20048;-68
2022/11/21 08:15:25;;;;;;;6.55;2.15;;;;;;;7.48;70.85;99746.88;4188165;28;20037;-67
2022/11/21 08:17:28;;;;;;;9.68;3.28;;;;;;;7.54;70.42;99749.53;4187867;28;20041;-67
2022/11/21 08:19:31;;;;;;;7.57;2.28;;;;;;;7.45;69.87;99755.44;4163243;28;20049;-68
2022/11/21 08:21:34;;;;;;;10.65;2.10;;;;;;;7.39;69.70;99746.69;4180913;28;20090;-67
2022/11/21 08:23:37;;;;;;;8.30;2.33;;;;;;;7.56;70.02;99742.66;4182739;28;20044;-67
2022/11/21 08:25:41;;;;;;;8.25;2.42;;;;;;;7.59;70.23;99740.09;4188942;28;20032;-67
2022/11/21 08:27:44;;;;;;;11.52;2.42;;;;;;;7.53;70.50;99737.44;4181415;28;20141;-67
2022/11/21 08:29:48;;;;;;;9.27;2.40;;;;;;;7.57;70.28;99740.97;4187942;28;20070;-67
2022/11/21 08:31:51;;;;;;;5.95;1.75;;;;;;;7.53;70.03;99737.44;4195929;28;20062;-67
2022/11/21 08:33:55;;;;;;;7.13;2.13;;;;;;;7.54;69.15;99739.19;4179801;28;20040;-67
2022/11/21 08:35:58;;;;;;;4.28;1.67;;;;;;;7.45;68.96;99746.81;4180769;28;20498;-67
2022/11/21 08:38:02;;;;;;;6.82;1.83;;;;;;;7.46;68.57;99745.94;4179681;28;20071;-67
2022/11/21 08:40:06;;;;;;;6.93;2.00;;;;;;;7.47;68.05;99740.78;4179513;28;20499;-67
2022/11/21 08:42:09;;;;;;;6.13;1.43;;;;;;;7.56;68.32;99734.03;4180720;28;20041;-67
2022/11/21 08:44:12;;;;;;;5.35;1.30;;;;;;;7.67;68.91;99730.75;4182412;28;20780;-67
2022/11/21 08:46:17;;;;;;;7.85;1.67;;;;;;;7.72;68.86;99727.38;4186129;28;20032;-69
2022/11/21 08:48:21;;;;;;;6.15;2.00;;;;;;;7.83;68.92;99718.03;4194696;28;20040;-69
2022/11/21 08:50:25;;;;;;;7.88;1.55;;;;;;;7.87;68.17;99714.66;4179259;28;20104;-69
2022/11/21 08:52:27;;;;;;;7.38;2.42;;;;;;;7.94;68.00;99725.94;4197207;28;20048;-68
2022/11/21 08:54:30;;;;;;;11.60;2.63;;;;;;;7.86;67.39;99723.25;4191764;28;20106;-68
2022/11/21 08:56:34;;;;;;;8.20;2.25;;;;;;;7.84;67.31;99719.75;4180431;28;20037;-73
2022/11/21 08:58:37;;;;;;;7.32;1.77;;;;;;;7.90;67.99;99714.69;4181065;28;20043;-68
2022/11/21 09:00:40;;;;;;;7.50;1.98;;;;;;;7.80;66.93;99723.19;4180425;28;20060;-68
2022/11/21 09:02:44;;;;;;;8.07;2.05;;;;;;;7.69;66.54;99723.91;4180368;28;20049;-68
2022/11/21 09:04:47;;;;;;;6.53;1.80;;;;;;;7.82;67.54;99726.63;4178398;28;20086;-68
2022/11/21 09:06:50;;;;;;;4.13;1.60;;;;;;;7.93;67.20;99713.84;4180475;28;20037;-69
2022/11/21 09:08:53;;;;;;;9.38;2.45;;;;;;;7.91;66.55;99713.81;4180483;28;20041;-68
2022/11/21 09:10:56;;;;;;;6.57;2.45;;;;;;;7.96;66.90;99716.50;4188484;28;20045;-70
2022/11/21 09:12:59;;;;;;;9.50;2.33;;;;;;;7.99;66.33;99719.97;4189736;28;20040;-64
2022/11/21 09:19:44;;;;;;;7.60;1.95;;;;;;;8.03;66.91;99711.41;4191219;28;20049;-62
2022/11/21 09:21:49;;;;;;;8.23;2.78;;;;;;;8.08;66.44;99708.00;4180338;28;20033;-63
2022/11/21 09:23:51;;;;;;;4.38;1.75;;;;;;;8.06;66.21;99707.97;4179302;28;20048;-62
2022/11/21 09:25:55;;;;;;;9.30;2.05;;;;;;;8.10;66.47;99717.50;4195804;28;20124;-67
2022/11/21 09:27:59;;;;;;;5.88;1.85;;;;;;;8.17;65.85;99702.91;4183703;28;20072;-68
2022/11/21 09:30:02;;;;;;;8.10;2.22;;;;;;;8.19;65.88;99701.19;4183563;28;20033;-63
2022/11/21 09:32:05;;;;;;;7.40;1.63;;;;;;;8.19;65.69;99706.38;4194440;28;20052;-62
2022/11/21 09:34:08;;;;;;;5.18;1.73;;;;;;;8.16;65.42;99707.25;4199262;28;20140;-65
2022/11/21 09:36:12;;;;;;;10.57;2.38;;;;;;;8.26;64.95;99700.44;4197651;28;20033;-66
2022/11/21 09:38:15;;;;;;;6.53;1.90;;;;;;;8.16;64.62;99691.72;4191661;28;20047;-64
2022/11/21 09:40:26;;;;;;;7.88;1.77;;;;;;;8.18;64.88;99689.13;4185479;28;20518;-64
2022/11/21 09:42:52;;;;;;;6.07;1.77;;;;;;;8.32;64.65;99686.69;4183414;28;20509;-63
2022/11/21 09:45:05;;;;;;;5.78;1.38;;;;;;;8.17;64.29;99675.31;4195505;28;20049;-62
2022/11/21 09:47:21;;;;;;;6.70;1.40;;;;;;;8.21;64.45;99678.81;4183619;28;20041;-65
2022/11/21 09:49:25;;;;;;;4.53;1.27;;;;;;;8.15;63.87;99679.59;4191834;28;20117;-64
2022/11/21 09:51:31;;;;;;;6.65;2.15;;;;;;;8.27;64.51;99681.47;4184809;28;20032;-68
2022/11/21 09:53:37;;;;;;;5.95;1.63;;;;;;;8.30;64.62;99684.06;4185098;28;20120;-71
2022/11/21 09:55:44;;;;;;;4.88;1.42;;;;;;;8.42;64.25;99678.16;4187073;28;20110;-64
2022/11/21 09:57:48;;;;;;;6.97;1.67;;;;;;;8.43;64.00;99684.22;4186341;28;20636;-64
2022/11/21 09:59:52;;;;;;;5.57;1.92;;;;;;;8.41;63.38;99678.13;4188800;28;20470;-67